East Davis - northern half: Past 24 Hour Conditions

 

Hall Beach Airport

02:00 PM EDT 31 October 2014
This table is a summary of hourly weather conditions for the past 24 hours.
Date / Time
(EDT)
Wind(knots) Conditions Visibility(km) Pressure(kPa) Air tempC) Relative humidity(%) Dew pointC) Wind Chill
31 October 2014
14:00 N 16 Drifting Snow 24 101.9 -11 91 -12 -20
13:00 N 16 Drifting Snow 24 101.9 -11 91 -12 -21
12:00 N 16 Drifting Snow 24 101.8 -11 92 -12 -20
11:00 N 16 Drifting Snow 24 101.8 -11 93 -11 -20
10:00 N 16 Drifting Snow 24 101.8 -11 93 -12 -21
9:00 N 15 Light Snowshower 24 101.8 -11 92 -12 -20
8:00 N 15 Light Snowshower 19 101.8 -11 92 -12 -21
7:00 N 17 Light Snow 16 101.7 -12 91 -13 -22
6:00 N 17 Light Snow 16 101.7 -11 89 -13 -22
5:00 NNW 13 Light Snow 13 101.7 -15 90 -16 -25
4:00 NNW 17 Light Snow 13 101.7 -16 93 -16 -27
3:00 NW 14 Partly Cloudy 16 101.7 -18 87 -19 -29
2:00 NW 16 Light Snow 16 101.7 -15 89 -17 -26
1:00 NNW 18 Light Snow 8 101.7 -13 89 -14 -24
0:00 N 17 Light Snow 8 101.7 -12 89 -14 -23
30 October 2014
23:00 N 19 Light Snow 2 101.7 -12 90 -14 -23
22:00 NNW 19 Light Snow 3 101.7 -12 90 -13 -22
21:00 N 15 Light Snow 16 101.7 -11 86 -13 -20
20:00 NNE 14 Light Snow 19 101.7 -11 87 -13 -20
19:00 N 11 Light Snow 19 101.7 -11 88 -13 -20
18:00 NNW 11 Light Snow 24 101.7 -12 87 -14 -21
17:00 NW 12 Light Snow 24 101.7 -13 87 -15 -22
16:00 NW 14 Light Snow 24 101.7 -13 85 -15 -23
15:00 NW 15 Drifting Snow 24 101.7 -13 86 -15 -24
14:00 NW 14 Mostly Cloudy 24 101.7 -13 85 -15 -23
 
Map of Arctic - Eastern Arctic marine weather areas Baker Lake Airport Chesterfield Inlet Airport Coral Harbour Airport Gjoa Haven Airport Kugaaruk Airport Rankin Inlet Airport Shepherd Bay Airport Whale Cove Airport Arctic Bay Brevoort Island Qikiqtarjuaq Airport Cape Dorset Airport Cape Dyer Cape Hooper Clyde Airport Grise Fiord Airport Hall Beach Airport Igloolik Airport Iqaluit Airport Longstaff Bluff Pangnirtung Airport Pond Inlet Airport Repulse Bay Airport Resolute Airport Resolution Island Rowley Island Airport Taloyoak Airport Wager Bay Akulivik Airport Ivujivik Airport Puvirnituq Airport Kangiqsujuaq Airport Kangirsuk Airport Quaqtaq Airport Tasiujaq Airport Cape Kakkiviak Cape Kiglapait Nain Airport Saglek Cape Mercy Kimmirut Airport Aupaluk Airport Salluit Airport Kangiqsualujjuaq Airport Fort Ross
Legend: buoyBuoy land stationLand Station